Falken — SBCH — position and weather

sailwx.info

Track history (hours):
 
Tides and Currents Weather Stations Pressure Air Temp Water Temp Dewpoint Dewpoint Depression Visibility Wind Speed Wind Dir Waves Ship Positions

Falken (Sweden)

Last reported at 2014-Aug-20 14:33 UTC. Time now 2014-Aug-20 14:38 UTC.
Position N 56°09' E 015°35'.

Length 40 m; draft 4.2 m.

Type: Sailing vessel. MMSI: 265070000.

Date/timePositionNaut miles runAvg speedWind from/ knotsBaromVisibWave heightAir tempDewpointWater temp
2014-Aug-20 14:33N 56°09' E 015°35'0 0.0
2014-Aug-20 13:33N 56°09' E 015°35'0 0.0
2014-Aug-20 12:33N 56°09' E 015°35'0 0.0
2014-Aug-20 11:33N 56°09' E 015°35'0 0.0
2014-Aug-20 10:33N 56°09' E 015°35'0 0.0
2014-Aug-20 09:32N 56°09' E 015°35'0 0.0
2014-Aug-20 08:33N 56°09' E 015°35'0 0.0
2014-Aug-20 07:33N 56°09' E 015°35'1 1.2
2014-Aug-20 06:34N 56°09' E 015°37'0 0.0
2014-Aug-20 05:33N 56°09' E 015°37'0 0.0
2014-Aug-20 04:33N 56°09' E 015°37'0 0.0
2014-Aug-20 03:33N 56°09' E 015°37'0 0.0
2014-Aug-20 02:33N 56°09' E 015°37'0 0.0
2014-Aug-20 01:33N 56°09' E 015°37'0 0.0
2014-Aug-20 00:33N 56°09' E 015°37'0 0.0
2014-Aug-19 23:33N 56°09' E 015°37'0 0.0
2014-Aug-19 22:33N 56°09' E 015°37'0 0.0
2014-Aug-19 21:33N 56°09' E 015°37'0 0.0
2014-Aug-19 20:30N 56°09' E 015°37'0 0.0
2014-Aug-19 19:33N 56°09' E 015°37'0 0.0
2014-Aug-19 18:33N 56°09' E 015°37'0 0.0
2014-Aug-19 17:33N 56°09' E 015°37'0 0.0
2014-Aug-19 16:33N 56°09' E 015°37'0 0.0
2014-Aug-19 15:33N 56°09' E 015°37'0 0.0
2014-Aug-19 14:30N 56°09' E 015°37'0 0.0
2014-Aug-19 13:33N 56°09' E 015°37'0 0.0
2014-Aug-19 12:33N 56°09' E 015°37'0 0.0
2014-Aug-19 11:33N 56°09' E 015°37'0 0.0
2014-Aug-19 10:33N 56°09' E 015°37'5 5.4
2014-Aug-19 09:33N 56°03' E 015°35'8 7.5
2014-Aug-19 08:33N 55°59' E 015°46'5 4.7
2014-Aug-19 07:33N 55°56' E 015°53'5 5.4
2014-Aug-19 06:33N 56°02' E 015°54'4 3.5
2014-Aug-19 05:33N 56°00' E 015°60'4 4.5
2014-Aug-19 04:33N 56°05' E 015°59'4 3.6
2014-Aug-19 03:33N 56°02' E 016°03'5 4.6
2014-Aug-19 02:33N 55°58' E 016°07'4 3.5
2014-Aug-19 01:27N 55°54' E 016°10'78 3.5
2014-Aug-18 03:07N 55°00' E 017°49'2 2.8
2014-Aug-18 02:25N 54°59' E 017°52'3 3.4
2014-Aug-18 01:33N 54°58' E 017°56'4 3.8
2014-Aug-18 00:33N 54°57' E 018°03'29 4.9
2014-Aug-17 18:33N 54°42' E 018°47'3 3.5
2014-Aug-17 17:33N 54°39' E 018°49'4 4.2
2014-Aug-17 16:33N 54°35' E 018°51'5 5.3
2014-Aug-17 15:33N 54°33' E 018°42'5 4.9
2014-Aug-17 14:33N 54°32' E 018°34'1 0.9
2014-Aug-17 13:32N 54°31' E 018°33'0 0.0
2014-Aug-17 12:33N 54°31' E 018°33'0 0.0
2014-Aug-17 11:31N 54°31' E 018°33'0 0.0
2014-Aug-17 10:31N 54°31' E 018°33'0 0.0
2014-Aug-17 09:31N 54°31' E 018°33'0 0.0
2014-Aug-17 08:33N 54°31' E 018°33'0 0.0
2014-Aug-17 07:33N 54°31' E 018°33'0 0.0
2014-Aug-17 06:31N 54°31' E 018°33'0 0.0
2014-Aug-17 05:32N 54°31' E 018°33'0 0.0
2014-Aug-17 04:32N 54°31' E 018°33'0 0.0
2014-Aug-17 03:31N 54°31' E 018°33'0 0.0
2014-Aug-17 02:31N 54°31' E 018°33'0 0.0
2014-Aug-17 01:31N 54°31' E 018°33'0 0.0
2014-Aug-17 00:31N 54°31' E 018°33'0 0.0
2014-Aug-16 23:32N 54°31' E 018°33'0 0.0
2014-Aug-16 22:31N 54°31' E 018°33'0 0.0
2014-Aug-16 21:32N 54°31' E 018°33'0 0.0
2014-Aug-16 20:32N 54°31' E 018°33'0 0.0
2014-Aug-16 19:32N 54°31' E 018°33'0 0.0
2014-Aug-16 18:32N 54°31' E 018°33'0 0.0
2014-Aug-16 17:32N 54°31' E 018°33'0 0.0
2014-Aug-16 16:32N 54°31' E 018°33'0 0.0
2014-Aug-16 15:32N 54°31' E 018°33'0 0.0
2014-Aug-16 14:32N 54°31' E 018°33'0 0.0
2014-Aug-16 13:31N 54°31' E 018°33'0 0.0
2014-Aug-16 12:31N 54°31' E 018°33'0 0.0
2014-Aug-16 11:33N 54°31' E 018°33'0 0.0
2014-Aug-16 10:33N 54°31' E 018°33'0 0.0
2014-Aug-16 09:33N 54°31' E 018°33'0 0.0
2014-Aug-16 08:33N 54°31' E 018°33'0 0.0
2014-Aug-16 07:33N 54°31' E 018°33'0 0.0
2014-Aug-16 06:33N 54°31' E 018°33'0 0.0
2014-Aug-16 05:33N 54°31' E 018°33'0 0.0
2014-Aug-16 04:33N 54°31' E 018°33'0 0.0
2014-Aug-16 03:33N 54°31' E 018°33'0 0.0
2014-Aug-16 02:33N 54°31' E 018°33'0 0.0
2014-Aug-16 01:33N 54°31' E 018°33'0 0.0
2014-Aug-16 00:33N 54°31' E 018°33'0 0.0
2014-Aug-15 23:33N 54°31' E 018°33'0 0.0
2014-Aug-15 22:31N 54°31' E 018°33'0 0.0
2014-Aug-15 21:31N 54°31' E 018°33'0 0.0
2014-Aug-15 20:31N 54°31' E 018°33'0 0.0
2014-Aug-15 19:31N 54°31' E 018°33'0 0.0
2014-Aug-15 18:31N 54°31' E 018°33'0 0.0
2014-Aug-15 17:32N 54°31' E 018°33'0 0.0
2014-Aug-15 16:32N 54°31' E 018°33'0 0.0
2014-Aug-15 15:32N 54°31' E 018°33'0 0.0
2014-Aug-15 14:32N 54°31' E 018°33'0 0.0
2014-Aug-15 13:32N 54°31' E 018°33'0 0.0
2014-Aug-15 12:32N 54°31' E 018°33'0 0.0
2014-Aug-15 11:31N 54°31' E 018°33'0 0.0
2014-Aug-15 10:31N 54°31' E 018°33'0 0.0
2014-Aug-15 09:31N 54°31' E 018°33'0 0.5
2014-Aug-15 08:33N 54°31' E 018°34'0 0.5
2014-Aug-15 07:33N 54°31' E 018°34'0 0.2
2014-Aug-15 06:32N 54°31' E 018°35'0 0.0
2014-Aug-15 05:32N 54°31' E 018°35'0 0.0
2014-Aug-15 04:32N 54°31' E 018°35'0 0.0
2014-Aug-15 03:32N 54°31' E 018°35'0 0.0
2014-Aug-15 02:32N 54°31' E 018°35'0 0.0
2014-Aug-15 01:32N 54°31' E 018°35'0 0.0
2014-Aug-15 00:32N 54°31' E 018°35'0 0.0
2014-Aug-14 23:32N 54°31' E 018°35'0 0.0
2014-Aug-14 22:32N 54°31' E 018°35'0 0.0
2014-Aug-14 21:32N 54°31' E 018°35'0 0.0
2014-Aug-14 20:32N 54°31' E 018°35'0 0.0
2014-Aug-14 19:32N 54°31' E 018°35'0 0.0
2014-Aug-14 18:32N 54°31' E 018°35'0 0.0
2014-Aug-14 17:32N 54°31' E 018°35'0 0.3
2014-Aug-14 16:33N 54°31' E 018°35'2 1.8
2014-Aug-14 15:33N 54°31' E 018°38'5 5.0
2014-Aug-14 14:34N 54°34' E 018°45'7 6.9
2014-Aug-14 13:34N 54°39' E 018°53'9 9.0
2014-Aug-14 12:34N 54°47' E 019°00'1010.0
2014-Aug-14 11:34N 54°57' E 019°02'1010.4
2014-Aug-14 10:33N 55°07' E 019°02'  
2014-Aug-11 12:14N 59°24' E 023°12'6 7.2
2014-Aug-11 11:26N 59°26' E 023°23'61 6.7
2014-Aug-11 02:14N 59°47' E 025°17'6 8.3
2014-Aug-11 01:34N 59°48' E 025°27'8 7.9
2014-Aug-11 00:33N 59°50' E 025°43'8 8.3
2014-Aug-10 23:34N 59°52' E 025°59'8 8.0
2014-Aug-10 22:33N 59°53' E 026°14'6 6.0
2014-Aug-10 21:33N 59°56' E 026°25'6 6.3
2014-Aug-10 20:33N 60°02' E 026°24'6 6.3
2014-Aug-10 19:34N 60°09' E 026°22'5 4.6
2014-Aug-10 18:34N 60°11' E 026°30'7 6.7
2014-Aug-10 17:34N 60°10' E 026°43'6 5.7
2014-Aug-10 16:34N 60°15' E 026°49'3 2.7
2014-Aug-10 15:34N 60°16' E 026°54'7 6.5
2014-Aug-10 14:34N 60°22' E 026°52'  
Track history (hours):
 
Tides and Currents Weather Stations Pressure Air Temp Water Temp Dewpoint Dewpoint Depression Visibility Wind Speed Wind Dir Waves Ship Positions

Falken (Sweden)

Last reported at 2014-Aug-20 14:33 UTC. Time now 2014-Aug-20 14:38 UTC.
Position N 56°09' E 015°35'.

Length 40 m; draft 4.2 m.

Type: Sailing vessel. MMSI: 265070000.

Date/timePositionNaut miles runAvg speedWind from/ knotsBaromVisibWave heightAir tempDewpointWater temp
2014-Aug-20 14:33N 56°09' E 015°35'0 0.0
2014-Aug-20 13:33N 56°09' E 015°35'0 0.0
2014-Aug-20 12:33N 56°09' E 015°35'0 0.0
2014-Aug-20 11:33N 56°09' E 015°35'0 0.0
2014-Aug-20 10:33N 56°09' E 015°35'0 0.0
2014-Aug-20 09:32N 56°09' E 015°35'0 0.0
2014-Aug-20 08:33N 56°09' E 015°35'0 0.0
2014-Aug-20 07:33N 56°09' E 015°35'1 1.2
2014-Aug-20 06:34N 56°09' E 015°37'0 0.0
2014-Aug-20 05:33N 56°09' E 015°37'0 0.0
2014-Aug-20 04:33N 56°09' E 015°37'0 0.0
2014-Aug-20 03:33N 56°09' E 015°37'0 0.0
2014-Aug-20 02:33N 56°09' E 015°37'0 0.0
2014-Aug-20 01:33N 56°09' E 015°37'0 0.0
2014-Aug-20 00:33N 56°09' E 015°37'0 0.0
2014-Aug-19 23:33N 56°09' E 015°37'0 0.0
2014-Aug-19 22:33N 56°09' E 015°37'0 0.0
2014-Aug-19 21:33N 56°09' E 015°37'0 0.0
2014-Aug-19 20:30N 56°09' E 015°37'0 0.0
2014-Aug-19 19:33N 56°09' E 015°37'0 0.0
2014-Aug-19 18:33N 56°09' E 015°37'0 0.0
2014-Aug-19 17:33N 56°09' E 015°37'0 0.0
2014-Aug-19 16:33N 56°09' E 015°37'0 0.0
2014-Aug-19 15:33N 56°09' E 015°37'0 0.0
2014-Aug-19 14:30N 56°09' E 015°37'0 0.0
2014-Aug-19 13:33N 56°09' E 015°37'0 0.0
2014-Aug-19 12:33N 56°09' E 015°37'0 0.0
2014-Aug-19 11:33N 56°09' E 015°37'0 0.0
2014-Aug-19 10:33N 56°09' E 015°37'5 5.4
2014-Aug-19 09:33N 56°03' E 015°35'8 7.5
2014-Aug-19 08:33N 55°59' E 015°46'5 4.7
2014-Aug-19 07:33N 55°56' E 015°53'5 5.4
2014-Aug-19 06:33N 56°02' E 015°54'4 3.5
2014-Aug-19 05:33N 56°00' E 015°60'4 4.5
2014-Aug-19 04:33N 56°05' E 015°59'4 3.6
2014-Aug-19 03:33N 56°02' E 016°03'5 4.6
2014-Aug-19 02:33N 55°58' E 016°07'4 3.5
2014-Aug-19 01:27N 55°54' E 016°10'78 3.5
2014-Aug-18 03:07N 55°00' E 017°49'2 2.8
2014-Aug-18 02:25N 54°59' E 017°52'3 3.4
2014-Aug-18 01:33N 54°58' E 017°56'4 3.8
2014-Aug-18 00:33N 54°57' E 018°03'29 4.9
2014-Aug-17 18:33N 54°42' E 018°47'3 3.5
2014-Aug-17 17:33N 54°39' E 018°49'4 4.2
2014-Aug-17 16:33N 54°35' E 018°51'5 5.3
2014-Aug-17 15:33N 54°33' E 018°42'5 4.9
2014-Aug-17 14:33N 54°32' E 018°34'1 0.9
2014-Aug-17 13:32N 54°31' E 018°33'0 0.0
2014-Aug-17 12:33N 54°31' E 018°33'0 0.0
2014-Aug-17 11:31N 54°31' E 018°33'0 0.0
2014-Aug-17 10:31N 54°31' E 018°33'0 0.0
2014-Aug-17 09:31N 54°31' E 018°33'0 0.0
2014-Aug-17 08:33N 54°31' E 018°33'0 0.0
2014-Aug-17 07:33N 54°31' E 018°33'0 0.0
2014-Aug-17 06:31N 54°31' E 018°33'0 0.0
2014-Aug-17 05:32N 54°31' E 018°33'0 0.0
2014-Aug-17 04:32N 54°31' E 018°33'0 0.0
2014-Aug-17 03:31N 54°31' E 018°33'0 0.0
2014-Aug-17 02:31N 54°31' E 018°33'0 0.0
2014-Aug-17 01:31N 54°31' E 018°33'0 0.0
2014-Aug-17 00:31N 54°31' E 018°33'0 0.0
2014-Aug-16 23:32N 54°31' E 018°33'0 0.0
2014-Aug-16 22:31N 54°31' E 018°33'0 0.0
2014-Aug-16 21:32N 54°31' E 018°33'0 0.0
2014-Aug-16 20:32N 54°31' E 018°33'0 0.0
2014-Aug-16 19:32N 54°31' E 018°33'0 0.0
2014-Aug-16 18:32N 54°31' E 018°33'0 0.0
2014-Aug-16 17:32N 54°31' E 018°33'0 0.0
2014-Aug-16 16:32N 54°31' E 018°33'0 0.0
2014-Aug-16 15:32N 54°31' E 018°33'0 0.0
2014-Aug-16 14:32N 54°31' E 018°33'0 0.0
2014-Aug-16 13:31N 54°31' E 018°33'0 0.0
2014-Aug-16 12:31N 54°31' E 018°33'0 0.0
2014-Aug-16 11:33N 54°31' E 018°33'0 0.0
2014-Aug-16 10:33N 54°31' E 018°33'0 0.0
2014-Aug-16 09:33N 54°31' E 018°33'0 0.0
2014-Aug-16 08:33N 54°31' E 018°33'0 0.0
2014-Aug-16 07:33N 54°31' E 018°33'0 0.0
2014-Aug-16 06:33N 54°31' E 018°33'0 0.0
2014-Aug-16 05:33N 54°31' E 018°33'0 0.0
2014-Aug-16 04:33N 54°31' E 018°33'0 0.0
2014-Aug-16 03:33N 54°31' E 018°33'0 0.0
2014-Aug-16 02:33N 54°31' E 018°33'0 0.0
2014-Aug-16 01:33N 54°31' E 018°33'0 0.0
2014-Aug-16 00:33N 54°31' E 018°33'0 0.0
2014-Aug-15 23:33N 54°31' E 018°33'0 0.0
2014-Aug-15 22:31N 54°31' E 018°33'0 0.0
2014-Aug-15 21:31N 54°31' E 018°33'0 0.0
2014-Aug-15 20:31N 54°31' E 018°33'0 0.0
2014-Aug-15 19:31N 54°31' E 018°33'0 0.0
2014-Aug-15 18:31N 54°31' E 018°33'0 0.0
2014-Aug-15 17:32N 54°31' E 018°33'0 0.0
2014-Aug-15 16:32N 54°31' E 018°33'0 0.0
2014-Aug-15 15:32N 54°31' E 018°33'0 0.0
2014-Aug-15 14:32N 54°31' E 018°33'0 0.0
2014-Aug-15 13:32N 54°31' E 018°33'0 0.0
2014-Aug-15 12:32N 54°31' E 018°33'0 0.0
2014-Aug-15 11:31N 54°31' E 018°33'0 0.0
2014-Aug-15 10:31N 54°31' E 018°33'0 0.0
2014-Aug-15 09:31N 54°31' E 018°33'0 0.5
2014-Aug-15 08:33N 54°31' E 018°34'0 0.5
2014-Aug-15 07:33N 54°31' E 018°34'0 0.2
2014-Aug-15 06:32N 54°31' E 018°35'0 0.0
2014-Aug-15 05:32N 54°31' E 018°35'0 0.0
2014-Aug-15 04:32N 54°31' E 018°35'0 0.0
2014-Aug-15 03:32N 54°31' E 018°35'0 0.0
2014-Aug-15 02:32N 54°31' E 018°35'0 0.0
2014-Aug-15 01:32N 54°31' E 018°35'0 0.0
2014-Aug-15 00:32N 54°31' E 018°35'0 0.0
2014-Aug-14 23:32N 54°31' E 018°35'0 0.0
2014-Aug-14 22:32N 54°31' E 018°35'0 0.0
2014-Aug-14 21:32N 54°31' E 018°35'0 0.0
2014-Aug-14 20:32N 54°31' E 018°35'0 0.0
2014-Aug-14 19:32N 54°31' E 018°35'0 0.0
2014-Aug-14 18:32N 54°31' E 018°35'0 0.0
2014-Aug-14 17:32N 54°31' E 018°35'0 0.3
2014-Aug-14 16:33N 54°31' E 018°35'2 1.8
2014-Aug-14 15:33N 54°31' E 018°38'5 5.0
2014-Aug-14 14:34N 54°34' E 018°45'7 6.9
2014-Aug-14 13:34N 54°39' E 018°53'9 9.0
2014-Aug-14 12:34N 54°47' E 019°00'1010.0
2014-Aug-14 11:34N 54°57' E 019°02'1010.4
2014-Aug-14 10:33N 55°07' E 019°02'  
2014-Aug-11 12:14N 59°24' E 023°12'6 7.2
2014-Aug-11 11:26N 59°26' E 023°23'61 6.7
2014-Aug-11 02:14N 59°47' E 025°17'6 8.3
2014-Aug-11 01:34N 59°48' E 025°27'8 7.9
2014-Aug-11 00:33N 59°50' E 025°43'8 8.3
2014-Aug-10 23:34N 59°52' E 025°59'8 8.0
2014-Aug-10 22:33N 59°53' E 026°14'6 6.0
2014-Aug-10 21:33N 59°56' E 026°25'6 6.3
2014-Aug-10 20:33N 60°02' E 026°24'6 6.3
2014-Aug-10 19:34N 60°09' E 026°22'5 4.6
2014-Aug-10 18:34N 60°11' E 026°30'7 6.7
2014-Aug-10 17:34N 60°10' E 026°43'6 5.7
2014-Aug-10 16:34N 60°15' E 026°49'3 2.7
2014-Aug-10 15:34N 60°16' E 026°54'7 6.5
2014-Aug-10 14:34N 60°22' E 026°52'  

Dump ship's entire track history